createdAt,value
2023-04-18T00:01:38.795Z,99492.81
2023-04-18T00:04:10.724Z,99499.59
2023-04-18T00:06:40.135Z,99497.94
2023-04-18T00:09:08.862Z,99498.81
2023-04-18T00:11:37.645Z,99492.00
2023-04-18T00:14:06.464Z,99496.25
2023-04-18T00:16:35.371Z,99496.28
2023-04-18T00:19:05.166Z,99494.56
2023-04-18T00:21:36.855Z,99495.44
2023-04-18T00:24:06.233Z,99503.94
2023-04-18T00:26:34.974Z,99502.25
2023-04-18T00:29:04.462Z,99503.97
2023-04-18T00:31:33.195Z,99499.75
2023-04-18T00:34:02.099Z,99504.91
2023-04-18T00:36:31.315Z,99501.56
2023-04-18T00:39:01.506Z,99505.03
2023-04-18T00:41:31.984Z,99505.06
2023-04-18T00:44:00.885Z,99500.81
2023-04-18T00:46:29.770Z,99505.13
2023-04-18T00:48:58.811Z,99505.19
2023-04-18T00:51:27.798Z,99497.53
2023-04-18T00:53:57.184Z,99502.66
2023-04-18T00:56:27.387Z,99501.81
2023-04-18T00:58:56.185Z,99505.25
2023-04-18T01:01:26.932Z,99506.97
2023-04-18T01:03:56.388Z,99500.19
2023-04-18T01:06:25.475Z,99504.44
2023-04-18T01:08:58.192Z,99497.69
2023-04-18T01:11:28.836Z,99504.53
2023-04-18T01:14:01.902Z,99503.69
2023-04-18T01:16:32.918Z,99495.25
2023-04-18T01:19:02.195Z,99508.81
2023-04-18T01:21:34.176Z,99501.16
2023-04-18T01:24:10.512Z,99505.41
2023-04-18T01:26:39.548Z,99505.38
2023-04-18T01:29:08.355Z,99501.13
2023-04-18T01:31:37.921Z,99509.66
2023-04-18T01:34:07.272Z,99509.63
2023-04-18T01:36:37.890Z,99508.81
2023-04-18T01:39:08.226Z,99498.59
2023-04-18T01:41:37.044Z,99500.25
2023-04-18T01:44:06.436Z,99502.78
2023-04-18T01:46:36.259Z,99505.34
2023-04-18T01:49:05.346Z,99498.53
2023-04-18T01:51:34.251Z,99499.38
2023-04-18T01:54:02.897Z,99479.84
2023-04-18T01:56:33.943Z,99493.38
2023-04-18T01:59:04.516Z,99493.34
2023-04-18T02:01:33.387Z,99497.59
2023-04-18T02:04:02.155Z,99495.88
2023-04-18T02:06:31.170Z,99497.59
2023-04-18T02:09:03.101Z,99500.13
2023-04-18T02:11:33.426Z,99499.28
2023-04-18T02:14:05.019Z,99495.88
2023-04-18T02:16:34.232Z,99496.72
2023-04-18T02:19:04.623Z,99492.50
2023-04-18T02:21:33.414Z,99489.94
2023-04-18T02:24:02.119Z,99495.00
2023-04-18T02:26:30.934Z,99481.38
2023-04-18T02:29:01.144Z,99498.38
2023-04-18T02:31:32.412Z,99493.31
2023-04-18T02:34:01.272Z,99494.97
2023-04-18T02:36:31.236Z,99499.28
2023-04-18T02:39:00.159Z,99506.91
2023-04-18T02:41:28.914Z,99493.34
2023-04-18T02:43:58.276Z,99508.66
2023-04-18T02:46:28.670Z,99516.31
2023-04-18T02:48:58.482Z,99512.06
2023-04-18T02:51:28.338Z,99517.16
2023-04-18T02:53:59.779Z,99520.56
2023-04-18T02:56:40.220Z,99518.00
2023-04-18T02:59:21.488Z,99514.63
2023-04-18T03:02:01.978Z,99518.06
2023-04-18T03:04:31.089Z,99513.81
2023-04-18T03:07:05.827Z,99515.53
2023-04-18T03:09:38.249Z,99522.34
2023-04-18T03:12:16.911Z,99514.69
2023-04-18T03:14:45.818Z,99520.66
2023-04-18T03:17:17.587Z,99518.13
2023-04-18T03:19:50.265Z,99522.38
2023-04-18T03:22:21.601Z,99523.22
2023-04-18T03:24:56.021Z,99524.94
2023-04-18T03:27:37.429Z,99533.44
2023-04-18T03:30:08.057Z,99530.00
2023-04-18T03:32:39.327Z,99525.78
2023-04-18T03:35:08.541Z,99535.13
2023-04-18T03:37:37.666Z,99535.09
2023-04-18T03:40:11.286Z,99524.03
2023-04-18T03:42:40.100Z,99536.78
2023-04-18T03:45:10.000Z,99535.06
2023-04-18T03:47:40.553Z,99505.38
2023-04-18T03:50:10.497Z,99541.03
2023-04-18T03:52:40.860Z,99532.56
2023-04-18T03:55:11.537Z,99535.09
2023-04-18T03:57:41.444Z,99534.22
2023-04-18T04:00:16.210Z,99539.34
2023-04-18T04:02:46.190Z,99546.16
2023-04-18T04:05:21.811Z,99549.53
2023-04-18T04:07:52.663Z,99543.59
2023-04-18T04:10:21.744Z,99549.56
2023-04-18T04:12:51.760Z,99557.25
2023-04-18T04:15:20.955Z,99556.41
2023-04-18T04:18:11.652Z,99543.66
2023-04-18T04:20:43.733Z,99551.31
2023-04-18T04:23:16.295Z,99564.91
2023-04-18T04:25:48.304Z,99562.34
2023-04-18T04:28:32.055Z,99566.59
2023-04-18T04:31:08.594Z,99571.69
2023-04-18T04:33:40.072Z,99571.69
2023-04-18T04:36:18.846Z,99572.53
2023-04-18T04:38:50.133Z,99576.78
2023-04-18T04:41:21.075Z,99574.25
2023-04-18T04:43:51.572Z,99589.56
2023-04-18T04:46:24.685Z,99585.28
2023-04-18T04:48:55.164Z,99590.41
2023-04-18T04:51:24.239Z,99581.03
2023-04-18T04:53:53.133Z,99581.00
2023-04-18T04:56:23.230Z,99583.56
2023-04-18T04:58:53.235Z,99581.88
2023-04-18T05:01:28.382Z,99585.25
2023-04-18T05:03:58.776Z,99580.13
2023-04-18T05:06:27.749Z,99582.66
2023-04-18T05:08:58.024Z,99586.88
2023-04-18T05:11:26.784Z,99580.88
2023-04-18T05:13:55.508Z,99586.84
2023-04-18T05:16:24.536Z,99586.81
2023-04-18T05:18:53.351Z,99584.25
2023-04-18T05:21:24.900Z,99590.19
2023-04-18T05:23:54.069Z,99593.56
2023-04-18T05:26:22.925Z,99592.72
2023-04-18T05:28:52.272Z,99601.22
2023-04-18T05:31:21.142Z,99590.13
2023-04-18T05:33:49.932Z,99590.06
2023-04-18T05:36:18.742Z,99595.16
2023-04-18T05:38:49.443Z,99600.28
2023-04-18T05:41:18.394Z,99600.25
2023-04-18T05:43:58.213Z,99601.03
2023-04-18T05:46:34.361Z,99609.50
2023-04-18T05:49:03.721Z,99612.03
2023-04-18T05:51:32.620Z,99611.94
2023-04-18T05:54:03.444Z,99605.91
2023-04-18T05:56:32.285Z,99610.97
2023-04-18T05:59:01.036Z,99606.66
2023-04-18T06:01:29.866Z,99598.94
2023-04-18T06:03:58.772Z,99602.28
2023-04-18T06:06:27.836Z,99604.00
2023-04-18T06:08:56.511Z,99606.47
2023-04-18T06:11:26.725Z,99614.06
2023-04-18T06:13:56.274Z,99608.91
2023-04-18T06:16:25.056Z,99614.88
2023-04-18T06:18:55.399Z,99615.72
2023-04-18T06:21:24.286Z,99617.44
2023-04-18T06:23:52.952Z,99619.94
2023-04-18T06:26:21.808Z,99618.19
2023-04-18T06:28:51.875Z,99615.56
2023-04-18T06:31:20.814Z,99619.75
2023-04-18T06:33:49.598Z,99625.63
2023-04-18T06:36:18.953Z,99621.41
2023-04-18T06:38:47.512Z,99628.13
2023-04-18T06:41:16.598Z,99626.44
2023-04-18T06:44:01.559Z,99631.47
2023-04-18T06:46:34.219Z,99628.91
2023-04-18T06:49:02.954Z,99634.91
2023-04-18T06:51:31.751Z,99629.78
2023-04-18T06:54:01.138Z,99639.13
2023-04-18T06:56:29.843Z,99642.50
2023-04-18T06:58:58.567Z,99643.22
2023-04-18T07:01:27.352Z,99649.13
2023-04-18T07:03:57.672Z,99644.78
2023-04-18T07:06:27.166Z,99648.97
2023-04-18T07:09:00.214Z,99644.66
2023-04-18T07:11:29.567Z,99659.13
2023-04-18T07:13:58.708Z,99652.19
2023-04-18T07:16:27.460Z,99658.16
2023-04-18T07:18:57.741Z,99658.13
2023-04-18T07:21:26.581Z,99663.22
2023-04-18T07:23:55.496Z,99659.72
2023-04-18T07:26:24.281Z,99661.47
2023-04-18T07:28:53.011Z,99661.47
2023-04-18T07:31:21.714Z,99664.03
2023-04-18T07:33:50.625Z,99667.50
2023-04-18T07:36:20.721Z,99665.97
2023-04-18T07:38:49.590Z,99665.09
2023-04-18T07:41:18.268Z,99664.25
2023-04-18T07:43:47.081Z,99675.38
2023-04-18T07:46:15.919Z,99672.78
2023-04-18T07:48:44.825Z,99674.47
2023-04-18T07:51:13.597Z,99678.84
2023-04-18T07:53:45.106Z,99683.19
2023-04-18T07:56:14.657Z,99684.03
2023-04-18T07:58:43.483Z,99685.78
2023-04-18T08:01:14.554Z,99690.91
2023-04-18T08:03:43.783Z,99695.16
2023-04-18T08:06:12.580Z,99689.19
2023-04-18T08:08:41.489Z,99686.59
2023-04-18T08:11:11.739Z,99684.84
2023-04-18T08:13:40.583Z,99687.41
2023-04-18T08:16:09.334Z,99695.13
2023-04-18T08:18:38.617Z,99703.63
2023-04-18T08:21:07.781Z,99701.91
2023-04-18T08:23:36.537Z,99699.34
2023-04-18T08:26:05.333Z,99694.16
2023-04-18T08:28:35.544Z,99695.00
2023-04-18T08:31:04.364Z,99696.66
2023-04-18T08:33:33.265Z,99699.25
2023-04-18T08:36:01.903Z,99700.91
2023-04-18T08:38:30.993Z,99700.06
2023-04-18T08:40:59.804Z,99701.72
2023-04-18T08:43:30.674Z,99704.22
2023-04-18T08:46:02.182Z,99710.09
2023-04-18T08:48:31.620Z,99704.06
2023-04-18T08:51:02.539Z,99707.44
2023-04-18T08:53:32.923Z,99710.72
2023-04-18T08:56:01.742Z,99714.16
2023-04-18T08:58:32.726Z,99707.19
2023-04-18T09:01:03.489Z,99705.31
2023-04-18T09:03:40.477Z,99716.25
2023-04-18T09:06:14.150Z,99708.69
2023-04-18T09:08:44.755Z,99719.06
2023-04-18T09:11:26.771Z,99714.88
2023-04-18T09:13:59.052Z,99718.25
2023-04-18T09:16:31.722Z,99714.81
2023-04-18T09:19:13.061Z,99715.63
2023-04-18T09:21:47.600Z,99709.59
2023-04-18T09:24:24.486Z,99696.66
2023-04-18T09:26:56.029Z,99698.31
2023-04-18T09:29:47.199Z,99692.38
2023-04-18T09:32:29.550Z,99686.31
2023-04-18T09:35:04.376Z,99698.16
2023-04-18T09:37:34.116Z,99697.22
2023-04-18T09:40:18.060Z,99693.72
2023-04-18T09:42:46.898Z,99691.03
2023-04-18T09:45:15.839Z,99691.03
2023-04-18T09:47:46.204Z,99687.50
2023-04-18T09:50:16.816Z,99689.88
2023-04-18T09:52:47.689Z,99684.66
2023-04-18T09:55:18.818Z,99683.00
2023-04-18T09:57:49.117Z,99688.97
2023-04-18T10:00:24.372Z,99685.47
2023-04-18T10:02:58.595Z,99670.91
2023-04-18T10:05:29.048Z,99675.94
2023-04-18T10:07:58.944Z,99684.28
2023-04-18T10:10:27.812Z,99684.88
2023-04-18T10:12:57.578Z,99681.16
2023-04-18T10:15:29.797Z,99671.50
2023-04-18T10:18:05.898Z,99687.53
2023-04-18T10:20:36.242Z,99683.75
2023-04-18T10:23:30.761Z,99685.31
2023-04-18T10:25:59.965Z,99685.09
2023-04-18T10:28:28.943Z,99681.50
2023-04-18T10:31:04.050Z,99677.84
2023-04-18T10:33:41.112Z,99679.34
2023-04-18T10:36:20.732Z,99679.75
2023-04-18T10:38:52.174Z,99668.00
2023-04-18T10:41:26.467Z,99669.06
2023-04-18T10:44:13.452Z,99663.41
2023-04-18T10:46:43.794Z,99663.00
2023-04-18T10:49:18.516Z,99650.22
2023-04-18T10:51:48.149Z,99649.03
2023-04-18T10:54:23.888Z,99648.16
2023-04-18T10:56:56.777Z,99643.25
2023-04-18T10:59:27.104Z,99648.28
2023-04-18T11:01:58.713Z,99648.44
2023-04-18T11:04:29.753Z,99644.66
2023-04-18T11:06:59.666Z,99645.91
2023-04-18T11:09:28.507Z,99642.66
2023-04-18T11:12:09.013Z,99648.03
2023-04-18T11:14:41.833Z,99640.75
2023-04-18T11:17:29.574Z,99642.28
2023-04-18T11:20:06.656Z,99632.25
2023-04-18T11:22:45.641Z,99643.34
2023-04-18T11:25:14.747Z,99641.25
2023-04-18T11:27:45.460Z,99630.47
2023-04-18T11:30:15.844Z,99635.91
2023-04-18T11:32:45.069Z,99631.94
2023-04-18T11:35:17.078Z,99633.22
2023-04-18T11:37:46.765Z,99635.88
2023-04-18T11:40:15.780Z,99635.47
2023-04-18T11:42:44.805Z,99636.72
2023-04-18T11:45:14.601Z,99633.09
2023-04-18T11:47:44.714Z,99629.47
2023-04-18T11:50:15.459Z,99619.25
2023-04-18T11:52:44.279Z,99623.59
2023-04-18T11:55:18.628Z,99626.16
2023-04-18T11:57:55.762Z,99621.16
2023-04-18T12:00:34.535Z,99619.03
2023-04-18T12:03:06.358Z,99623.94
2023-04-18T12:05:39.049Z,99623.50
2023-04-18T12:08:09.644Z,99624.81
2023-04-18T12:10:39.646Z,99620.94
2023-04-18T12:13:10.511Z,99613.53
2023-04-18T12:15:40.865Z,99614.31
2023-04-18T12:18:09.660Z,99616.22
2023-04-18T12:20:46.876Z,99610.38
2023-04-18T12:23:31.125Z,99616.34
2023-04-18T12:26:04.078Z,99612.97
2023-04-18T12:28:33.612Z,99618.81
2023-04-18T12:31:02.679Z,99600.00
2023-04-18T12:33:32.292Z,99600.81
2023-04-18T12:36:02.258Z,99591.31
2023-04-18T12:38:31.069Z,99596.09
2023-04-18T12:40:59.766Z,99595.59
2023-04-18T12:43:28.678Z,99588.41
2023-04-18T12:45:57.941Z,99594.06
2023-04-18T12:48:26.759Z,99583.22
2023-04-18T12:50:55.611Z,99592.00
2023-04-18T12:53:25.949Z,99578.72
2023-04-18T12:55:54.727Z,99585.84
2023-04-18T12:58:23.591Z,99588.03
2023-04-18T13:00:52.400Z,99577.94
2023-04-18T13:03:21.392Z,99577.03
2023-04-18T13:05:50.420Z,99580.09
2023-04-18T13:08:19.135Z,99577.47
2023-04-18T13:10:49.514Z,99581.59
2023-04-18T13:13:18.210Z,99570.34
2023-04-18T13:15:47.022Z,99567.75
2023-04-18T13:18:15.739Z,99574.22
2023-04-18T13:20:44.725Z,99579.97
2023-04-18T13:23:13.416Z,99575.19
2023-04-18T13:25:42.394Z,99569.91
2023-04-18T13:28:12.556Z,99581.44
2023-04-18T13:30:41.518Z,99575.66
2023-04-18T13:33:10.864Z,99578.50
2023-04-18T13:35:39.294Z,99571.06
2023-04-18T13:38:08.286Z,99586.91
2023-04-18T13:40:38.942Z,99575.06
2023-04-18T13:43:07.822Z,99570.84
2023-04-18T13:45:38.091Z,99572.66
2023-04-18T13:48:07.501Z,99565.09
2023-04-18T13:50:36.296Z,99563.06
2023-04-18T13:53:05.191Z,99565.81
2023-04-18T13:55:33.876Z,99569.59
2023-04-18T13:58:02.657Z,99573.50
2023-04-18T14:00:31.942Z,99573.88
2023-04-18T14:03:02.614Z,99585.44
2023-04-18T14:05:33.433Z,99579.63
2023-04-18T14:08:04.243Z,99590.09
2023-04-18T14:10:33.227Z,99587.81
2023-04-18T14:13:02.058Z,99598.63
2023-04-18T14:15:33.482Z,99587.50
2023-04-18T14:18:03.862Z,99583.47
2023-04-18T14:20:34.853Z,99585.00
2023-04-18T14:23:03.717Z,99585.72
2023-04-18T14:25:32.645Z,99587.38
2023-04-18T14:28:09.849Z,99588.22
2023-04-18T14:30:40.083Z,99584.72
2023-04-18T14:33:10.605Z,99582.91
2023-04-18T14:35:40.008Z,99588.88
2023-04-18T14:38:08.720Z,99592.38
2023-04-18T14:40:37.700Z,99588.28
2023-04-18T14:43:06.420Z,99585.63
2023-04-18T14:45:35.479Z,99580.50
2023-04-18T14:48:04.189Z,99588.88
2023-04-18T14:50:36.321Z,99588.94
2023-04-18T14:53:05.158Z,99588.78
2023-04-18T14:55:33.869Z,99587.88
2023-04-18T14:58:03.046Z,99575.16
2023-04-18T15:00:32.544Z,99579.53
2023-04-18T15:03:01.208Z,99586.69
2023-04-18T15:05:30.043Z,99586.97
2023-04-18T15:08:00.317Z,99586.09
2023-04-18T15:10:29.057Z,99580.25
2023-04-18T15:12:57.688Z,99584.56
2023-04-18T15:15:26.616Z,99585.72
2023-04-18T15:17:55.407Z,99576.59
2023-04-18T15:20:24.455Z,99581.75
2023-04-18T15:22:53.120Z,99579.22
2023-04-18T15:25:23.392Z,99572.34
2023-04-18T15:27:52.473Z,99581.75
2023-04-18T15:30:21.376Z,99584.19
2023-04-18T15:32:50.227Z,99580.97
2023-04-18T15:35:19.123Z,99585.44
2023-04-18T15:37:49.229Z,99587.16
2023-04-18T15:40:18.852Z,99577.78
2023-04-18T15:42:49.735Z,99580.50
2023-04-18T15:45:19.552Z,99577.97
2023-04-18T15:47:48.444Z,99587.53
2023-04-18T15:50:17.295Z,99587.63
2023-04-18T15:52:46.263Z,99590.28
2023-04-18T15:55:15.207Z,99594.75
2023-04-18T15:57:43.980Z,99590.66
2023-04-18T16:00:16.386Z,99588.31
2023-04-18T16:02:46.017Z,99584.09
2023-04-18T16:05:15.521Z,99590.38
2023-04-18T16:07:44.590Z,99592.16
2023-04-18T16:10:15.352Z,99601.69
2023-04-18T16:12:44.235Z,99606.06
2023-04-18T16:15:14.992Z,99608.94
2023-04-18T16:17:43.763Z,99608.25
2023-04-18T16:20:12.898Z,99608.38
2023-04-18T16:22:41.710Z,99615.38
2023-04-18T16:25:11.333Z,99624.03
2023-04-18T16:27:40.185Z,99626.69
2023-04-18T16:30:10.391Z,99626.97
2023-04-18T16:32:40.750Z,99611.06
2023-04-18T16:35:10.512Z,99634.97
2023-04-18T16:37:39.430Z,99634.25
2023-04-18T16:40:10.863Z,99636.88
2023-04-18T16:42:40.065Z,99636.16
2023-04-18T16:45:09.715Z,99637.16
2023-04-18T16:47:39.087Z,99639.88
2023-04-18T16:50:10.615Z,99623.84
2023-04-18T16:52:39.465Z,99642.88
2023-04-18T16:55:08.620Z,99645.59
2023-04-18T16:57:37.361Z,99646.56
2023-04-18T17:00:07.861Z,99646.66
2023-04-18T17:02:36.764Z,99653.63
2023-04-18T17:05:05.841Z,99656.22
2023-04-18T17:07:36.163Z,99653.81
2023-04-18T17:10:05.400Z,99658.22
2023-04-18T17:12:34.160Z,99673.84
2023-04-18T17:15:03.995Z,99674.03
2023-04-18T17:17:33.140Z,99679.34
2023-04-18T17:20:01.950Z,99675.16
2023-04-18T17:22:30.861Z,99672.69
2023-04-18T17:25:02.181Z,99677.03
2023-04-18T17:27:31.331Z,99678.75
2023-04-18T17:30:00.087Z,99681.38
2023-04-18T17:32:29.674Z,99688.38
2023-04-18T17:34:58.607Z,99691.91
2023-04-18T17:37:27.488Z,99694.47
2023-04-18T17:39:58.035Z,99696.25
2023-04-18T17:42:28.320Z,99700.69
2023-04-18T17:44:56.969Z,99702.56
2023-04-18T17:47:25.842Z,99712.94
2023-04-18T17:49:54.805Z,99714.66
2023-04-18T17:52:23.468Z,99709.66
2023-04-18T17:54:52.289Z,99721.78
2023-04-18T17:57:21.895Z,99716.84
2023-04-18T17:59:52.080Z,99716.03
2023-04-18T18:02:23.788Z,99725.50
2023-04-18T18:04:53.538Z,99723.69
2023-04-18T18:07:22.891Z,99726.22
2023-04-18T18:09:51.766Z,99728.78
2023-04-18T18:12:20.550Z,99717.78
2023-04-18T18:14:49.298Z,99726.28
2023-04-18T18:17:19.444Z,99735.69
2023-04-18T18:19:48.323Z,99749.50
2023-04-18T18:22:17.806Z,99740.16
2023-04-18T18:24:46.740Z,99751.38
2023-04-18T18:27:15.461Z,99753.13
2023-04-18T18:29:44.290Z,99759.16
2023-04-18T18:32:12.880Z,99750.66
2023-04-18T18:34:43.610Z,99751.53
2023-04-18T18:37:12.416Z,99751.53
2023-04-18T18:39:42.100Z,99755.03
2023-04-18T18:42:10.458Z,99757.66
2023-04-18T18:44:39.271Z,99758.56
2023-04-18T18:47:08.206Z,99760.44
2023-04-18T18:49:37.377Z,99769.94
2023-04-18T18:52:07.768Z,99777.78
2023-04-18T18:54:36.442Z,99782.22
2023-04-18T18:57:05.417Z,99757.69
2023-04-18T18:59:34.302Z,99785.84
2023-04-18T19:02:03.251Z,99786.81
2023-04-18T19:04:32.560Z,99789.38
2023-04-18T19:07:01.415Z,99799.69
2023-04-18T19:09:31.734Z,99797.16
2023-04-18T19:12:01.385Z,99797.19
2023-04-18T19:14:29.797Z,99804.97
2023-04-18T19:16:58.554Z,99798.25
2023-04-18T19:19:27.456Z,99804.31
2023-04-18T19:21:56.190Z,99799.31
2023-04-18T19:24:25.162Z,99806.97
2023-04-18T19:26:56.102Z,99798.38
2023-04-18T19:29:24.862Z,99797.56
2023-04-18T19:31:53.775Z,99797.59
2023-04-18T19:34:22.751Z,99799.28
2023-04-18T19:36:51.605Z,99802.69
2023-04-18T19:39:20.481Z,99801.75
2023-04-18T19:41:49.281Z,99792.38
2023-04-18T19:44:19.830Z,99811.97
2023-04-18T19:46:48.642Z,99812.84
2023-04-18T19:49:17.489Z,99812.00
2023-04-18T19:51:46.331Z,99799.19
2023-04-18T19:54:15.106Z,99810.28
2023-04-18T19:56:44.687Z,99799.22
2023-04-18T19:59:13.671Z,99810.31
2023-04-18T20:01:44.241Z,99811.19
2023-04-18T20:04:13.291Z,99803.53
2023-04-18T20:06:42.802Z,99807.84
2023-04-18T20:09:17.086Z,99814.81
2023-04-18T20:11:48.609Z,99814.09
2023-04-18T20:14:18.464Z,99815.16
2023-04-18T20:16:49.894Z,99811.84
2023-04-18T20:19:19.749Z,99818.75
2023-04-18T20:21:48.162Z,99821.31
2023-04-18T20:24:17.082Z,99819.56
2023-04-18T20:26:45.957Z,99819.66
2023-04-18T20:29:15.032Z,99817.13
2023-04-18T20:31:44.038Z,99810.31
2023-04-18T20:34:14.338Z,99818.81
2023-04-18T20:36:43.291Z,99814.53
2023-04-18T20:39:13.730Z,99814.56
2023-04-18T20:41:46.680Z,99812.81
2023-04-18T20:44:15.858Z,99818.81
2023-04-18T20:46:44.653Z,99817.13
2023-04-18T20:49:15.107Z,99817.13
2023-04-18T20:51:44.095Z,99813.72
2023-04-18T20:54:13.048Z,99808.59
2023-04-18T20:56:42.533Z,99806.88
2023-04-18T20:59:11.332Z,99793.31
2023-04-18T21:01:40.249Z,99805.19
2023-04-18T21:04:09.711Z,99802.66
2023-04-18T21:06:39.979Z,99801.84
2023-04-18T21:09:09.025Z,99796.69
2023-04-18T21:11:37.849Z,99801.84
2023-04-18T21:14:06.918Z,99789.03
2023-04-18T21:16:37.003Z,99796.72
2023-04-18T21:19:05.865Z,99791.66
2023-04-18T21:21:34.803Z,99795.94
2023-04-18T21:24:08.151Z,99793.38
2023-04-18T21:26:36.939Z,99792.56
2023-04-18T21:29:05.951Z,99785.78
2023-04-18T21:31:36.154Z,99784.97
2023-04-18T21:34:07.050Z,99786.72
2023-04-18T21:36:36.133Z,99791.03
2023-04-18T21:39:06.338Z,99790.22
2023-04-18T21:41:35.310Z,99785.97
2023-04-18T21:44:04.061Z,99787.69
2023-04-18T21:46:33.011Z,99786.88
2023-04-18T21:49:01.695Z,99785.16
2023-04-18T21:51:30.481Z,99780.03
2023-04-18T21:53:59.476Z,99785.22
2023-04-18T21:56:29.700Z,99779.22
2023-04-18T21:58:58.362Z,99781.84
2023-04-18T22:01:27.301Z,99777.63
2023-04-18T22:03:56.416Z,99767.44
2023-04-18T22:06:27.762Z,99769.09
2023-04-18T22:08:56.546Z,99773.47
2023-04-18T22:11:25.325Z,99776.09
2023-04-18T22:13:56.317Z,99770.16
2023-04-18T22:16:25.213Z,99768.50
2023-04-18T22:18:54.232Z,99768.50
2023-04-18T22:21:23.150Z,99779.59
2023-04-18T22:23:51.974Z,99765.13
2023-04-18T22:26:20.780Z,99767.72
2023-04-18T22:28:50.310Z,99764.34
2023-04-18T22:31:20.632Z,99775.50
2023-04-18T22:33:49.430Z,99773.78
2023-04-18T22:36:18.669Z,99766.16
2023-04-18T22:38:47.436Z,99760.28
2023-04-18T22:41:16.194Z,99765.38
2023-04-18T22:43:45.280Z,99761.97
2023-04-18T22:46:14.084Z,99761.97
2023-04-18T22:48:45.142Z,99758.56
2023-04-18T22:51:15.532Z,99758.56
2023-04-18T22:53:44.305Z,99755.19
2023-04-18T22:56:13.040Z,99743.28
2023-04-18T22:58:41.885Z,99760.31
2023-04-18T23:01:10.755Z,99756.03
2023-04-18T23:03:39.724Z,99748.41
2023-04-18T23:06:10.175Z,99746.69
2023-04-18T23:08:39.924Z,99738.16
2023-04-18T23:11:08.676Z,99745.84
2023-04-18T23:13:37.947Z,99742.44
2023-04-18T23:16:07.581Z,99739.91
2023-04-18T23:18:36.126Z,99742.47
2023-04-18T23:21:04.963Z,99734.88
2023-04-18T23:23:35.313Z,99740.00
2023-04-18T23:26:04.159Z,99742.56
2023-04-18T23:28:32.977Z,99733.16
2023-04-18T23:31:01.717Z,99727.16
2023-04-18T23:33:30.724Z,99731.44
2023-04-18T23:35:59.559Z,99726.28
2023-04-18T23:38:28.531Z,99727.16
2023-04-18T23:40:58.780Z,99720.34
2023-04-18T23:43:27.567Z,99709.28
2023-04-18T23:45:56.239Z,99719.47
2023-04-18T23:48:25.148Z,99712.59
2023-04-18T23:50:54.349Z,99698.97
2023-04-18T23:53:23.968Z,99706.66
2023-04-18T23:55:52.670Z,99698.13
2023-04-18T23:58:23.140Z,99695.59
